createdAt,value
2018-06-17T00:00:49.810Z,0.00
2018-06-17T00:01:49.991Z,0.00
2018-06-17T00:02:50.171Z,0.00
2018-06-17T00:03:50.355Z,0.00
2018-06-17T00:04:50.566Z,0.00
2018-06-17T00:05:50.727Z,0.00
2018-06-17T00:06:50.889Z,0.00
2018-06-17T00:07:51.062Z,0.00
2018-06-17T00:08:51.231Z,0.00
2018-06-17T00:09:51.428Z,0.00
2018-06-17T00:10:51.587Z,0.00
2018-06-17T00:11:51.763Z,0.00
2018-06-17T00:12:51.954Z,0.00
2018-06-17T00:13:52.141Z,0.00
2018-06-17T00:14:52.324Z,0.00
2018-06-17T00:15:52.541Z,0.00
2018-06-17T00:16:52.690Z,0.00
2018-06-17T00:17:52.872Z,0.00
2018-06-17T00:18:53.050Z,0.00
2018-06-17T00:19:53.249Z,0.00
2018-06-17T00:20:53.475Z,0.00
2018-06-17T00:21:53.595Z,0.00
2018-06-17T00:22:53.771Z,0.00
2018-06-17T00:23:53.957Z,0.00
2018-06-17T00:24:54.137Z,0.00
2018-06-17T00:25:54.320Z,0.00
2018-06-17T00:26:55.423Z,0.00
2018-06-17T00:27:54.727Z,0.00
2018-06-17T00:28:54.938Z,0.00
2018-06-17T00:29:55.092Z,0.00
2018-06-17T00:30:55.281Z,0.00
2018-06-17T00:31:55.462Z,0.00
2018-06-17T00:32:55.646Z,0.00
2018-06-17T00:33:55.830Z,0.00
2018-06-17T00:34:56.034Z,0.00
2018-06-17T00:35:56.191Z,0.00
2018-06-17T00:36:56.369Z,0.00
2018-06-17T00:37:56.556Z,0.00
2018-06-17T00:38:56.744Z,0.00
2018-06-17T00:39:56.949Z,0.00
2018-06-17T00:40:57.093Z,0.00
2018-06-17T00:41:57.303Z,0.00
2018-06-17T00:42:57.458Z,0.00
2018-06-17T00:43:57.666Z,0.00
2018-06-17T00:44:57.817Z,0.00
2018-06-17T00:45:58.009Z,0.00
2018-06-17T00:46:58.192Z,0.00
2018-06-17T00:47:58.392Z,0.00
2018-06-17T00:48:58.552Z,0.00
2018-06-17T00:49:58.736Z,0.00
2018-06-17T00:50:58.938Z,0.00
2018-06-17T00:51:59.138Z,0.00
2018-06-17T00:52:59.295Z,0.00
2018-06-17T00:53:59.479Z,0.00
2018-06-17T00:54:59.676Z,0.00
2018-06-17T00:55:59.861Z,0.00
2018-06-17T00:57:00.027Z,0.00
2018-06-17T00:58:00.222Z,0.00
2018-06-17T00:59:00.423Z,0.00
2018-06-17T01:00:00.577Z,0.00
2018-06-17T01:01:00.772Z,0.00
2018-06-17T01:02:00.916Z,0.00
2018-06-17T01:03:01.097Z,0.00
2018-06-17T01:04:01.280Z,0.00
2018-06-17T01:05:01.460Z,0.00
2018-06-17T01:06:01.640Z,0.00
2018-06-17T01:07:01.814Z,0.00
2018-06-17T01:08:01.991Z,0.00
2018-06-17T01:09:02.177Z,0.00
2018-06-17T01:10:02.408Z,0.00
2018-06-17T01:11:02.543Z,0.00
2018-06-17T01:12:02.717Z,0.00
2018-06-17T01:13:02.903Z,0.00
2018-06-17T01:14:03.110Z,0.00
2018-06-17T01:15:03.310Z,0.00
2018-06-17T01:16:03.452Z,0.00
2018-06-17T01:17:03.634Z,0.00
2018-06-17T01:18:03.848Z,0.00
2018-06-17T01:19:04.018Z,0.00
2018-06-17T01:20:04.189Z,0.00
2018-06-17T01:21:04.368Z,0.00
2018-06-17T01:22:04.566Z,0.00
2018-06-17T01:23:04.740Z,0.00
2018-06-17T01:24:04.913Z,0.00
2018-06-17T01:25:05.095Z,0.00
2018-06-17T01:26:05.281Z,0.00
2018-06-17T01:27:05.509Z,0.00
2018-06-17T01:28:05.683Z,0.00
2018-06-17T01:29:05.826Z,0.00
2018-06-17T01:30:06.000Z,0.00
2018-06-17T01:31:06.183Z,0.00
2018-06-17T01:32:06.354Z,0.00
2018-06-17T01:33:06.552Z,0.00
2018-06-17T01:34:06.717Z,0.00
2018-06-17T01:35:06.888Z,0.00
2018-06-17T01:36:07.067Z,0.00
2018-06-17T01:37:07.291Z,0.00
2018-06-17T01:38:07.450Z,0.00
2018-06-17T01:39:07.635Z,0.00
2018-06-17T01:40:07.789Z,0.00
2018-06-17T01:41:08.003Z,0.00
2018-06-17T01:42:08.157Z,0.00
2018-06-17T01:43:08.336Z,0.00
2018-06-17T01:44:08.507Z,0.00
2018-06-17T01:45:08.694Z,0.00
2018-06-17T01:46:08.870Z,0.00
2018-06-17T01:47:09.088Z,0.00
2018-06-17T01:48:09.257Z,0.00
2018-06-17T01:49:09.440Z,0.00
2018-06-17T01:50:09.624Z,0.00
2018-06-17T01:51:09.782Z,0.00
2018-06-17T01:52:10.000Z,0.00
2018-06-17T01:53:10.132Z,0.00
2018-06-17T01:54:10.321Z,0.00
2018-06-17T01:55:10.512Z,0.00
2018-06-17T01:56:10.688Z,0.00
2018-06-17T01:57:10.844Z,0.00
2018-06-17T01:58:11.030Z,0.00
2018-06-17T01:59:11.210Z,0.00
2018-06-17T02:00:11.401Z,0.00
2018-06-17T02:01:11.586Z,0.00
2018-06-17T02:02:11.774Z,0.00
2018-06-17T02:03:12.015Z,0.00
2018-06-17T02:04:12.150Z,0.00
2018-06-17T02:05:12.357Z,0.00
2018-06-17T02:06:12.551Z,0.00
2018-06-17T02:07:12.697Z,0.00
2018-06-17T02:08:12.889Z,0.00
2018-06-17T02:09:13.045Z,0.00
2018-06-17T02:10:13.237Z,0.00
2018-06-17T02:11:13.420Z,0.00
2018-06-17T02:12:13.643Z,0.00
2018-06-17T02:13:13.804Z,0.00
2018-06-17T02:14:13.961Z,0.00
2018-06-17T02:15:14.144Z,0.00
2018-06-17T02:16:14.391Z,0.00
2018-06-17T02:17:14.510Z,0.00
2018-06-17T02:18:14.702Z,0.00
2018-06-17T02:19:14.869Z,0.00
2018-06-17T02:20:15.063Z,0.00
2018-06-17T02:21:15.250Z,0.00
2018-06-17T02:22:15.430Z,0.00
2018-06-17T02:23:15.608Z,0.00
2018-06-17T02:24:15.793Z,0.00
2018-06-17T02:25:15.993Z,0.00
2018-06-17T02:26:16.169Z,4.00
2018-06-17T02:27:16.375Z,4.00
2018-06-17T02:28:16.561Z,0.00
2018-06-17T02:29:16.770Z,0.00
2018-06-17T02:30:16.929Z,4.00
2018-06-17T02:31:17.118Z,4.00
2018-06-17T02:32:17.336Z,0.00
2018-06-17T02:33:17.526Z,4.00
2018-06-17T02:34:17.700Z,4.00
2018-06-17T02:35:17.858Z,4.00
2018-06-17T02:36:18.037Z,4.00
2018-06-17T02:37:18.205Z,4.00
2018-06-17T02:38:18.427Z,4.00
2018-06-17T02:39:18.607Z,4.00
2018-06-17T02:40:18.771Z,4.00
2018-06-17T02:41:18.971Z,12.00
2018-06-17T02:42:19.160Z,12.00
2018-06-17T02:43:19.362Z,12.00
2018-06-17T02:44:19.507Z,12.00
2018-06-17T02:45:19.678Z,12.00
2018-06-17T02:46:19.892Z,12.00
2018-06-17T02:47:20.080Z,12.00
2018-06-17T02:48:20.210Z,8.00
2018-06-17T02:49:20.391Z,12.00
2018-06-17T02:50:20.596Z,8.00
2018-06-17T02:51:20.760Z,12.00
2018-06-17T02:52:20.944Z,12.00
2018-06-17T02:53:21.161Z,16.00
2018-06-17T02:54:21.300Z,16.00
2018-06-17T02:55:21.496Z,20.00
2018-06-17T02:56:21.654Z,24.00
2018-06-17T02:57:21.888Z,32.00
2018-06-17T02:58:22.025Z,40.00
2018-06-17T02:59:22.200Z,52.00
2018-06-17T03:00:22.392Z,60.00
2018-06-17T03:01:22.603Z,68.00
2018-06-17T03:02:22.778Z,80.00
2018-06-17T03:03:22.963Z,80.00
2018-06-17T03:04:23.169Z,88.00
2018-06-17T03:05:23.347Z,92.00
2018-06-17T03:06:23.513Z,96.00
2018-06-17T03:07:23.677Z,104.00
2018-06-17T03:08:23.858Z,108.00
2018-06-17T03:11:07.749Z,108.00
2018-06-17T03:12:07.537Z,104.00
2018-06-17T03:13:07.627Z,108.00
2018-06-17T03:14:07.896Z,108.00
2018-06-17T03:15:08.124Z,108.00
2018-06-17T03:16:08.248Z,104.00
2018-06-17T03:17:08.425Z,100.00
2018-06-17T03:18:08.586Z,100.00
2018-06-17T03:19:08.780Z,100.00
2018-06-17T03:20:08.977Z,100.00
2018-06-17T03:21:09.134Z,108.00
2018-06-17T03:22:09.311Z,104.00
2018-06-17T03:23:09.503Z,100.00
2018-06-17T03:24:09.682Z,108.00
2018-06-17T03:25:09.889Z,108.00
2018-06-17T03:26:10.122Z,104.00
2018-06-17T03:27:10.205Z,100.00
2018-06-17T03:28:10.406Z,96.00
2018-06-17T03:29:10.591Z,96.00
2018-06-17T03:30:10.778Z,88.00
2018-06-17T03:31:10.961Z,92.00
2018-06-17T03:32:11.128Z,88.00
2018-06-17T03:33:11.308Z,92.00
2018-06-17T03:34:11.493Z,88.00
2018-06-17T03:35:11.680Z,84.00
2018-06-17T03:36:11.851Z,80.00
2018-06-17T03:37:12.052Z,84.00
2018-06-17T03:38:12.232Z,84.00
2018-06-17T03:39:12.414Z,92.00
2018-06-17T03:40:12.597Z,96.00
2018-06-17T03:41:12.784Z,104.00
2018-06-17T03:42:12.957Z,116.00
2018-06-17T03:43:13.143Z,128.00
2018-06-17T03:44:13.375Z,156.00
2018-06-17T03:45:13.497Z,180.00
2018-06-17T03:46:13.705Z,208.00
2018-06-17T03:47:13.885Z,228.00
2018-06-17T03:48:14.096Z,256.00
2018-06-17T03:49:14.275Z,296.00
2018-06-17T03:50:14.433Z,264.00
2018-06-17T03:51:14.611Z,264.00
2018-06-17T03:52:14.767Z,284.00
2018-06-17T03:53:14.964Z,264.00
2018-06-17T03:54:15.186Z,248.00
2018-06-17T03:55:15.343Z,236.00
2018-06-17T03:56:15.519Z,240.00
2018-06-17T03:57:15.689Z,252.00
2018-06-17T03:58:15.886Z,280.00
2018-06-17T03:59:16.082Z,304.00
2018-06-17T04:00:16.206Z,360.00
2018-06-17T04:01:16.396Z,428.00
2018-06-17T04:02:16.583Z,492.00
2018-06-17T04:03:16.780Z,540.00
2018-06-17T04:04:16.941Z,600.00
2018-06-17T04:05:17.120Z,660.00
2018-06-17T04:06:17.305Z,688.00
2018-06-17T04:07:17.491Z,704.00
2018-06-17T04:08:17.666Z,756.00
2018-06-17T04:09:17.852Z,776.00
2018-06-17T04:10:18.133Z,744.00
2018-06-17T04:11:18.206Z,620.00
2018-06-17T04:12:18.418Z,532.00
2018-06-17T04:13:18.554Z,492.00
2018-06-17T04:14:18.760Z,516.00
2018-06-17T04:15:18.950Z,476.00
2018-06-17T04:16:19.116Z,464.00
2018-06-17T04:17:19.281Z,460.00
2018-06-17T04:18:19.482Z,460.00
2018-06-17T04:19:19.642Z,452.00
2018-06-17T04:20:19.820Z,448.00
2018-06-17T04:21:20.002Z,460.00
2018-06-17T04:22:20.220Z,492.00
2018-06-17T04:23:20.358Z,528.00
2018-06-17T04:24:20.576Z,568.00
2018-06-17T04:25:20.768Z,608.00
2018-06-17T04:26:20.911Z,640.00
2018-06-17T04:27:21.099Z,688.00
2018-06-17T04:28:21.288Z,724.00
2018-06-17T04:29:21.449Z,776.00
2018-06-17T04:30:21.625Z,744.00
2018-06-17T04:31:21.822Z,828.00
2018-06-17T04:32:21.971Z,828.00
2018-06-17T04:33:22.212Z,920.00
2018-06-17T04:34:22.358Z,1024.00
2018-06-17T04:35:22.524Z,1284.00
2018-06-17T04:36:22.695Z,1788.00
2018-06-17T04:37:22.886Z,2012.00
2018-06-17T04:38:23.069Z,1924.00
2018-06-17T04:39:23.247Z,1844.00
2018-06-17T04:40:23.417Z,1620.00
2018-06-17T04:41:23.626Z,1368.00
2018-06-17T04:42:23.766Z,1236.00
2018-06-17T04:43:23.950Z,1132.00
2018-06-17T04:44:24.137Z,1156.00
2018-06-17T04:45:24.325Z,1244.00
2018-06-17T04:46:24.496Z,1200.00
2018-06-17T04:47:24.677Z,984.00
2018-06-17T04:48:24.862Z,1012.00
2018-06-17T04:49:25.045Z,1108.00
2018-06-17T04:50:25.224Z,1208.00
2018-06-17T04:51:25.419Z,1280.00
2018-06-17T04:52:25.606Z,1180.00
2018-06-17T04:53:25.774Z,1092.00
2018-06-17T04:54:25.977Z,1136.00
2018-06-17T04:55:26.150Z,1136.00
2018-06-17T04:56:26.337Z,1148.00
2018-06-17T04:57:26.537Z,1124.00
2018-06-17T04:58:26.669Z,1132.00
2018-06-17T04:59:26.842Z,1200.00
2018-06-17T05:00:27.033Z,1328.00
2018-06-17T05:01:27.206Z,1444.00
2018-06-17T05:02:27.400Z,1284.00
2018-06-17T05:03:27.575Z,1228.00
2018-06-17T05:04:27.763Z,1348.00
2018-06-17T05:05:27.937Z,1496.00
2018-06-17T05:06:28.105Z,1412.00
2018-06-17T05:07:28.320Z,1568.00
2018-06-17T05:08:28.479Z,1820.00
2018-06-17T05:09:28.677Z,2048.00
2018-06-17T05:10:28.851Z,2148.00
2018-06-17T05:11:29.026Z,1864.00
2018-06-17T05:12:29.229Z,1584.00
2018-06-17T05:13:29.388Z,1632.00
2018-06-17T05:14:29.576Z,1720.00
2018-06-17T05:15:29.753Z,1824.00
2018-06-17T05:16:29.930Z,2084.00
2018-06-17T05:17:30.143Z,2256.00
2018-06-17T05:18:30.286Z,2300.00
2018-06-17T05:19:30.462Z,2220.00
2018-06-17T05:20:30.669Z,2256.00
2018-06-17T05:21:30.838Z,2344.00
2018-06-17T05:22:31.021Z,2152.00
2018-06-17T05:23:31.210Z,2056.00
2018-06-17T05:24:31.402Z,1972.00
2018-06-17T05:25:31.579Z,2224.00
2018-06-17T05:26:31.775Z,2716.00
2018-06-17T05:27:31.949Z,3564.00
2018-06-17T05:28:32.131Z,4668.00
2018-06-17T05:29:32.341Z,5800.00
2018-06-17T05:30:32.500Z,6180.00
2018-06-17T05:31:32.705Z,6860.00
2018-06-17T05:32:32.874Z,7632.00
2018-06-17T05:33:33.055Z,8552.00
2018-06-17T05:34:33.231Z,7864.00
2018-06-17T05:35:33.414Z,7364.00
2018-06-17T05:36:33.587Z,7700.00
2018-06-17T05:37:33.769Z,13144.00
2018-06-17T05:38:33.951Z,6568.00
2018-06-17T05:39:34.122Z,5900.00
2018-06-17T05:40:34.301Z,6328.00
2018-06-17T05:41:34.482Z,6420.00
2018-06-17T05:42:34.670Z,6020.00
2018-06-17T05:43:34.854Z,5232.00
2018-06-17T05:44:35.044Z,4748.00
2018-06-17T05:45:35.213Z,4148.00
2018-06-17T05:46:35.418Z,4240.00
2018-06-17T05:47:35.646Z,4484.00
2018-06-17T05:48:35.792Z,4152.00
2018-06-17T05:49:35.934Z,4672.00
2018-06-17T05:50:36.161Z,6256.00
2018-06-17T05:51:36.319Z,7264.00
2018-06-17T05:52:36.507Z,16608.00
2018-06-17T05:53:36.695Z,7280.00
2018-06-17T05:54:36.878Z,6324.00
2018-06-17T05:55:37.138Z,5684.00
2018-06-17T05:56:37.269Z,5912.00
2018-06-17T05:57:37.448Z,6560.00
2018-06-17T05:58:37.609Z,6836.00
2018-06-17T05:59:37.847Z,4876.00
2018-06-17T06:00:37.977Z,4588.00
2018-06-17T06:01:38.160Z,4708.00
2018-06-17T06:02:38.352Z,5424.00
2018-06-17T06:03:38.525Z,6948.00
2018-06-17T06:04:38.744Z,7828.00
2018-06-17T06:05:38.897Z,7252.00
2018-06-17T06:06:39.080Z,7224.00
2018-06-17T06:07:39.285Z,8312.00
2018-06-17T06:08:39.442Z,8116.00
2018-06-17T06:09:39.625Z,8240.00
2018-06-17T06:10:39.809Z,10388.00
2018-06-17T06:11:39.989Z,8684.00
2018-06-17T06:12:40.177Z,9464.00
2018-06-17T06:13:40.396Z,11464.00
2018-06-17T06:14:40.567Z,11164.00
2018-06-17T06:15:40.756Z,10156.00
2018-06-17T06:16:40.914Z,9312.00
2018-06-17T06:17:41.102Z,8528.00
2018-06-17T06:18:41.288Z,7120.00
2018-06-17T06:19:41.472Z,7312.00
2018-06-17T06:20:41.664Z,5508.00
2018-06-17T06:21:41.872Z,4748.00
2018-06-17T06:22:42.042Z,4328.00
2018-06-17T06:23:42.232Z,4552.00
2018-06-17T06:24:42.473Z,5064.00
2018-06-17T06:25:42.576Z,6200.00
2018-06-17T06:26:42.776Z,6840.00
2018-06-17T06:27:42.984Z,7172.00
2018-06-17T06:28:43.130Z,7532.00
2018-06-17T06:29:43.321Z,7108.00
2018-06-17T06:30:43.545Z,6312.00
2018-06-17T06:31:43.704Z,5772.00
2018-06-17T06:32:43.866Z,5916.00
2018-06-17T06:33:44.048Z,5944.00
2018-06-17T06:34:44.247Z,6096.00
2018-06-17T06:35:44.410Z,6880.00
2018-06-17T06:36:44.593Z,18912.00
2018-06-17T06:37:44.778Z,8808.00
2018-06-17T06:38:44.962Z,11560.00
2018-06-17T06:39:45.140Z,8324.00
2018-06-17T06:40:45.364Z,8008.00
2018-06-17T06:41:45.497Z,6936.00
2018-06-17T06:42:45.693Z,6640.00
2018-06-17T06:43:45.884Z,6608.00
2018-06-17T06:44:46.087Z,7252.00
2018-06-17T06:45:46.251Z,8580.00
2018-06-17T06:46:46.440Z,8200.00
2018-06-17T06:47:46.625Z,8084.00
2018-06-17T06:48:46.819Z,8716.00
2018-06-17T06:49:47.027Z,9592.00
2018-06-17T06:50:47.178Z,10268.00
2018-06-17T06:51:47.362Z,9800.00
2018-06-17T06:52:47.553Z,9276.00
2018-06-17T06:53:47.742Z,7896.00
2018-06-17T06:54:47.929Z,7640.00
2018-06-17T06:55:48.105Z,8112.00
2018-06-17T06:56:48.313Z,8324.00
2018-06-17T06:57:48.467Z,8512.00
2018-06-17T06:58:48.668Z,7824.00
2018-06-17T06:59:48.841Z,7432.00
2018-06-17T07:00:49.014Z,7288.00
2018-06-17T07:01:49.236Z,7860.00
2018-06-17T07:02:49.407Z,9196.00
2018-06-17T07:03:49.563Z,9828.00
2018-06-17T07:04:49.750Z,10912.00
2018-06-17T07:05:49.942Z,11956.00
2018-06-17T07:06:50.136Z,12196.00
2018-06-17T07:07:50.334Z,13676.00
2018-06-17T07:08:50.492Z,13908.00
2018-06-17T07:09:50.683Z,14676.00
2018-06-17T07:10:50.873Z,15936.00
2018-06-17T07:11:51.079Z,15264.00
2018-06-17T07:12:51.228Z,11144.00
2018-06-17T07:13:51.437Z,9452.00
2018-06-17T07:14:51.601Z,8524.00
2018-06-17T07:15:51.787Z,8516.00
2018-06-17T07:16:52.037Z,10208.00
2018-06-17T07:17:52.165Z,12472.00
2018-06-17T07:18:52.348Z,73248.00
2018-06-17T07:19:52.545Z,77792.00
2018-06-17T07:20:52.719Z,76928.00
2018-06-17T07:21:52.912Z,76192.00
2018-06-17T07:22:53.101Z,74048.00
2018-06-17T07:23:53.315Z,67392.00
2018-06-17T07:24:53.479Z,83872.00
2018-06-17T07:25:53.666Z,84512.00
2018-06-17T07:26:53.850Z,86848.00
2018-06-17T07:27:54.033Z,83040.00
2018-06-17T07:28:54.213Z,85504.00
2018-06-17T07:29:54.405Z,74816.00
2018-06-17T07:30:54.599Z,42976.00
2018-06-17T07:31:54.811Z,54112.00
2018-06-17T07:32:55.005Z,86528.00
2018-06-17T07:33:55.161Z,81696.00
2018-06-17T07:34:55.361Z,80512.00
2018-06-17T07:35:55.538Z,74304.00
2018-06-17T07:36:55.734Z,83136.00
2018-06-17T07:37:55.942Z,86976.00
2018-06-17T07:38:56.091Z,86528.00
2018-06-17T07:39:56.285Z,86912.00
2018-06-17T07:40:56.586Z,88224.00
2018-06-17T07:41:56.688Z,89120.00
2018-06-17T07:42:56.832Z,87264.00
2018-06-17T07:43:57.079Z,87392.00
2018-06-17T07:44:57.209Z,88640.00
2018-06-17T07:45:57.422Z,93408.00
2018-06-17T07:46:57.602Z,97728.00
2018-06-17T07:47:57.773Z,9980.00
2018-06-17T07:48:57.980Z,7204.00
2018-06-17T07:49:58.188Z,93408.00
2018-06-17T07:50:58.340Z,95456.00
2018-06-17T07:51:58.509Z,97024.00
2018-06-17T07:52:58.689Z,97472.00
2018-06-17T07:53:58.886Z,96288.00
2018-06-17T07:54:59.078Z,94912.00
2018-06-17T07:55:59.328Z,95712.00
2018-06-17T07:56:59.446Z,93824.00
2018-06-17T07:57:59.625Z,92064.00
2018-06-17T07:58:59.820Z,93408.00
2018-06-17T08:00:00.018Z,92960.00
2018-06-17T08:01:00.202Z,91456.00
2018-06-17T08:02:00.395Z,93280.00
2018-06-17T08:03:00.582Z,87296.00
2018-06-17T08:04:00.777Z,85696.00
2018-06-17T08:05:00.965Z,82624.00
2018-06-17T08:06:01.155Z,67456.00
2018-06-17T08:07:01.340Z,40288.00
2018-06-17T08:08:01.524Z,26720.00
2018-06-17T08:09:01.724Z,24416.00
2018-06-17T08:10:01.904Z,25056.00
2018-06-17T08:11:02.145Z,11476.00
2018-06-17T08:12:02.330Z,19424.00
2018-06-17T08:13:02.499Z,32160.00
2018-06-17T08:14:02.724Z,22912.00
2018-06-17T08:15:02.880Z,26304.00
2018-06-17T08:16:03.077Z,66336.00
2018-06-17T08:17:03.294Z,33504.00
2018-06-17T08:18:03.491Z,51424.00
2018-06-17T08:19:03.664Z,13636.00
2018-06-17T08:20:03.848Z,10920.00
2018-06-17T08:21:04.062Z,19616.00
2018-06-17T08:22:04.227Z,15616.00
2018-06-17T08:23:04.457Z,15168.00
2018-06-17T08:24:04.601Z,15424.00
2018-06-17T08:25:04.813Z,17312.00
2018-06-17T08:26:04.985Z,24448.00
2018-06-17T08:27:05.178Z,19968.00
2018-06-17T08:28:05.371Z,17792.00
2018-06-17T08:29:05.558Z,20000.00
2018-06-17T08:30:05.767Z,18240.00
2018-06-17T08:31:05.962Z,13660.00
2018-06-17T08:32:06.141Z,6988.00
2018-06-17T08:33:06.342Z,7352.00
2018-06-17T08:34:06.508Z,6456.00
2018-06-17T08:35:06.697Z,5592.00
2018-06-17T08:36:06.885Z,5580.00
2018-06-17T08:37:07.081Z,6496.00
2018-06-17T08:38:07.273Z,10524.00
2018-06-17T08:39:07.465Z,7856.00
2018-06-17T08:40:07.672Z,19328.00
2018-06-17T08:41:07.844Z,15584.00
2018-06-17T08:42:08.055Z,13336.00
2018-06-17T08:43:08.221Z,12460.00
2018-06-17T08:44:08.409Z,10640.00
2018-06-17T08:45:08.607Z,11952.00
2018-06-17T08:46:08.786Z,9376.00
2018-06-17T08:47:08.973Z,9352.00
2018-06-17T08:48:09.181Z,9404.00
2018-06-17T08:49:09.378Z,9544.00
2018-06-17T08:50:09.567Z,9604.00
2018-06-17T08:51:09.786Z,8048.00
2018-06-17T08:52:09.941Z,9560.00
2018-06-17T08:53:10.132Z,9228.00
2018-06-17T08:54:10.343Z,8440.00
2018-06-17T08:55:10.508Z,8232.00
2018-06-17T08:56:10.697Z,6176.00
2018-06-17T08:57:10.897Z,5908.00
2018-06-17T08:58:11.082Z,5612.00
2018-06-17T08:59:11.278Z,4704.00
2018-06-17T09:00:11.548Z,4672.00
2018-06-17T09:01:11.660Z,4376.00
2018-06-17T09:02:11.844Z,4472.00
2018-06-17T09:03:12.035Z,4720.00
2018-06-17T09:04:12.230Z,4672.00
2018-06-17T09:05:12.420Z,4328.00
2018-06-17T09:06:12.605Z,4464.00
2018-06-17T09:07:12.811Z,4288.00
2018-06-17T09:08:13.013Z,4248.00
2018-06-17T09:09:13.185Z,4180.00
2018-06-17T09:10:13.347Z,4024.00
2018-06-17T09:11:13.551Z,3852.00
2018-06-17T09:12:13.737Z,3664.00
2018-06-17T09:13:13.932Z,3396.00
2018-06-17T09:14:14.126Z,3332.00
2018-06-17T09:15:14.299Z,3240.00
2018-06-17T09:16:14.487Z,3152.00
2018-06-17T09:17:14.691Z,3256.00
2018-06-17T09:18:14.862Z,3508.00
2018-06-17T09:19:15.080Z,7156.00
2018-06-17T09:20:15.266Z,6272.00
2018-06-17T09:21:15.458Z,6916.00
2018-06-17T09:22:15.604Z,7704.00
2018-06-17T09:23:15.780Z,7232.00
2018-06-17T09:24:15.984Z,8324.00
2018-06-17T09:25:16.193Z,8932.00
2018-06-17T09:26:16.358Z,8632.00
2018-06-17T09:27:16.549Z,7868.00
2018-06-17T09:28:16.730Z,7600.00
2018-06-17T09:29:16.924Z,6680.00
2018-06-17T09:30:17.114Z,5804.00
2018-06-17T09:31:17.338Z,5252.00
2018-06-17T09:32:17.545Z,4876.00
2018-06-17T09:33:17.718Z,4612.00
2018-06-17T09:34:17.893Z,4380.00
2018-06-17T09:35:18.062Z,4004.00
2018-06-17T09:36:18.246Z,3600.00
2018-06-17T09:37:18.434Z,3332.00
2018-06-17T09:38:18.652Z,3112.00
2018-06-17T09:39:18.818Z,2896.00
2018-06-17T09:40:18.998Z,2748.00
2018-06-17T09:41:19.198Z,2676.00
2018-06-17T09:42:19.407Z,2592.00
2018-06-17T09:43:19.583Z,2552.00
2018-06-17T09:44:19.836Z,2512.00
2018-06-17T09:45:19.901Z,2532.00
2018-06-17T09:46:20.135Z,2620.00
2018-06-17T09:47:20.287Z,2872.00
2018-06-17T09:48:20.466Z,3240.00
2018-06-17T09:49:20.655Z,3472.00
2018-06-17T09:50:20.835Z,3560.00
2018-06-17T09:51:21.013Z,3804.00
2018-06-17T09:52:21.221Z,4120.00
2018-06-17T09:53:21.413Z,5084.00
2018-06-17T09:54:21.598Z,5968.00
2018-06-17T09:55:21.771Z,6912.00
2018-06-17T09:56:21.962Z,6828.00
2018-06-17T09:57:22.163Z,7060.00
2018-06-17T09:58:22.322Z,6824.00
2018-06-17T09:59:22.502Z,6584.00
2018-06-17T10:00:22.685Z,6264.00
2018-06-17T10:01:22.873Z,6520.00
2018-06-17T10:02:23.059Z,6624.00
2018-06-17T10:03:23.270Z,6476.00
2018-06-17T10:04:23.437Z,6384.00
2018-06-17T10:05:23.631Z,5988.00
2018-06-17T10:06:23.822Z,6208.00
2018-06-17T10:07:24.022Z,6432.00
2018-06-17T10:08:24.222Z,6504.00
2018-06-17T10:09:24.361Z,6772.00
2018-06-17T10:10:24.599Z,7056.00
2018-06-17T10:11:24.726Z,7032.00
2018-06-17T10:12:24.902Z,6952.00
2018-06-17T10:13:25.091Z,6916.00
2018-06-17T10:14:25.277Z,6980.00
2018-06-17T10:15:25.499Z,6804.00
2018-06-17T10:16:25.646Z,6912.00
2018-06-17T10:17:25.849Z,6536.00
2018-06-17T10:18:26.019Z,6552.00
2018-06-17T10:19:26.202Z,6372.00
2018-06-17T10:20:26.385Z,6292.00
2018-06-17T10:21:26.574Z,5848.00
2018-06-17T10:22:26.765Z,5276.00
2018-06-17T10:23:26.967Z,4924.00
2018-06-17T10:24:27.128Z,4512.00
2018-06-17T10:25:27.358Z,3904.00
2018-06-17T10:26:27.509Z,3568.00
2018-06-17T10:27:27.724Z,3208.00
2018-06-17T10:28:27.865Z,2980.00
2018-06-17T10:29:28.136Z,2940.00
2018-06-17T10:30:28.243Z,3072.00
2018-06-17T10:31:28.429Z,3108.00
2018-06-17T10:32:28.639Z,3336.00
2018-06-17T10:33:28.803Z,3676.00
2018-06-17T10:34:28.970Z,3976.00
2018-06-17T10:35:29.155Z,4096.00
2018-06-17T10:36:29.328Z,4324.00
2018-06-17T10:37:29.521Z,4756.00
2018-06-17T10:38:29.714Z,4768.00
2018-06-17T10:39:29.912Z,4828.00
2018-06-17T10:40:30.105Z,5440.00
2018-06-17T10:41:30.312Z,5732.00
2018-06-17T10:42:30.498Z,5780.00
2018-06-17T10:43:30.671Z,5836.00
2018-06-17T10:44:30.834Z,5712.00
2018-06-17T10:45:31.051Z,5340.00
2018-06-17T10:46:31.205Z,5116.00
2018-06-17T10:47:31.391Z,4856.00
2018-06-17T10:48:31.602Z,4496.00
2018-06-17T10:49:31.779Z,4148.00
2018-06-17T10:50:32.030Z,3728.00
2018-06-17T10:51:32.184Z,3400.00
2018-06-17T10:52:32.358Z,3140.00
2018-06-17T10:53:32.521Z,2928.00
2018-06-17T10:54:32.700Z,2768.00
2018-06-17T10:55:32.945Z,2720.00
2018-06-17T10:56:33.096Z,2644.00
2018-06-17T10:57:33.292Z,2620.00
2018-06-17T10:58:33.509Z,2616.00
2018-06-17T10:59:33.674Z,2692.00
2018-06-17T11:00:33.848Z,2896.00
2018-06-17T11:01:34.068Z,3112.00
2018-06-17T11:02:34.264Z,3276.00
2018-06-17T11:03:34.398Z,3516.00
2018-06-17T11:04:34.583Z,3740.00
2018-06-17T11:05:34.800Z,4208.00
2018-06-17T11:06:34.949Z,4744.00
2018-06-17T11:07:35.138Z,5148.00
2018-06-17T11:08:35.347Z,5820.00
2018-06-17T11:09:35.499Z,6424.00
2018-06-17T11:10:35.705Z,6480.00
2018-06-17T11:11:35.879Z,6960.00
2018-06-17T11:12:36.071Z,7092.00
2018-06-17T11:13:36.256Z,7308.00
2018-06-17T11:14:36.437Z,7832.00
2018-06-17T11:15:36.614Z,7836.00
2018-06-17T11:16:36.834Z,7700.00
2018-06-17T11:17:37.030Z,8036.00
2018-06-17T11:18:37.181Z,8200.00
2018-06-17T11:19:37.381Z,8188.00
2018-06-17T11:20:37.567Z,8176.00
2018-06-17T11:21:37.761Z,8060.00
2018-06-17T11:22:37.932Z,8072.00
2018-06-17T11:23:38.129Z,7860.00
2018-06-17T11:24:38.319Z,7676.00
2018-06-17T11:25:38.504Z,7396.00
2018-06-17T11:26:38.680Z,7568.00
2018-06-17T11:27:38.852Z,7536.00
2018-06-17T11:28:39.052Z,7620.00
2018-06-17T11:29:39.253Z,7728.00
2018-06-17T11:30:39.411Z,7968.00
2018-06-17T11:31:39.585Z,7992.00
2018-06-17T11:32:39.764Z,7920.00
2018-06-17T11:33:39.950Z,8040.00
2018-06-17T11:34:40.142Z,7836.00
2018-06-17T11:35:40.326Z,7904.00
2018-06-17T11:36:40.532Z,8308.00
2018-06-17T11:37:40.682Z,7944.00
2018-06-17T11:38:40.854Z,7852.00
2018-06-17T11:39:41.067Z,7788.00
2018-06-17T11:40:41.260Z,7748.00
2018-06-17T11:41:41.437Z,7428.00
2018-06-17T11:42:41.604Z,7268.00
2018-06-17T11:43:41.811Z,7344.00
2018-06-17T11:44:41.998Z,7380.00
2018-06-17T11:45:42.157Z,7256.00
2018-06-17T11:46:42.341Z,6792.00
2018-06-17T11:47:42.531Z,6644.00
2018-06-17T11:48:42.729Z,6556.00
2018-06-17T11:49:42.951Z,6856.00
2018-06-17T11:50:43.122Z,6700.00
2018-06-17T11:51:43.295Z,6964.00
2018-06-17T11:52:43.456Z,6892.00
2018-06-17T11:53:43.648Z,6648.00
2018-06-17T11:54:43.871Z,6360.00
2018-06-17T11:55:44.019Z,6368.00
2018-06-17T11:56:44.230Z,6612.00
2018-06-17T11:57:44.409Z,6968.00
2018-06-17T11:58:44.605Z,6976.00
2018-06-17T11:59:44.887Z,6724.00
2018-06-17T12:00:45.016Z,6768.00
2018-06-17T12:01:45.178Z,6416.00
2018-06-17T12:02:45.354Z,6864.00
2018-06-17T12:03:45.501Z,6760.00
2018-06-17T12:04:45.699Z,6224.00
2018-06-17T12:05:45.912Z,6168.00
2018-06-17T12:06:46.061Z,5908.00
2018-06-17T12:07:46.246Z,5748.00
2018-06-17T12:08:46.423Z,5768.00
2018-06-17T12:09:46.630Z,5792.00
2018-06-17T12:10:46.801Z,5904.00
2018-06-17T12:11:46.989Z,5940.00
2018-06-17T12:12:47.248Z,5904.00
2018-06-17T12:13:47.362Z,5688.00
2018-06-17T12:14:47.646Z,5152.00
2018-06-17T12:15:47.765Z,5636.00
2018-06-17T12:16:47.939Z,6060.00
2018-06-17T12:17:48.124Z,6064.00
2018-06-17T12:18:48.283Z,6448.00
2018-06-17T12:19:48.473Z,6080.00
2018-06-17T12:20:48.660Z,5924.00
2018-06-17T12:21:48.897Z,5836.00
2018-06-17T12:22:49.084Z,5672.00
2018-06-17T12:23:49.271Z,5664.00
2018-06-17T12:24:49.466Z,5852.00
2018-06-17T12:25:49.647Z,6020.00
2018-06-17T12:26:49.823Z,6124.00